Triumphant — WDG8773 — position and weather

sailwx.info

Track history (hours):
 
Tides and Currents Weather Stations Pressure Air Temp Water Temp Dewpoint Dewpoint Depression Visibility Wind Speed Wind Dir Waves Ship Positions

Triumphant

Owner: Harbor Breeze Corporation, Long Beach, CA. More information available from US FCC via Universal Licensing System and Coast Guard Vessel Documentation Center.

Last reported at 2018-Feb-19 18:01 UTC. Time now 2018-Feb-19 18:08 UTC.
Position N 33°46' W 118°12'.

Length 26 m.

Type: Passenger vessel. MMSI: 367580930.

Date/timePositionNaut miles runAvg speedWind from/ knotsBaromVisibWave heightAir tempDewpointWater temp
2018-Feb-19 18:01N 33°46' W 118°12'0 0.0
2018-Feb-19 17:28N 33°46' W 118°12'0 0.0
2018-Feb-19 04:07N 33°46' W 118°12'0 0.1
2018-Feb-19 03:13N 33°46' W 118°12'2 8.9
2018-Feb-19 02:59N 33°44' W 118°12'4 8.7
2018-Feb-19 02:30N 33°44' W 118°17'8 6.7
2018-Feb-19 01:15N 33°44' W 118°27'613.2
2018-Feb-19 00:50N 33°43' W 118°20'3 7.9
2018-Feb-19 00:31N 33°42' W 118°17'2 4.3
2018-Feb-19 00:00N 33°44' W 118°17'0 0.0
2018-Feb-18 23:30N 33°44' W 118°17'3 5.1
2018-Feb-18 22:59N 33°42' W 118°18'510.5
2018-Feb-18 22:28N 33°37' W 118°17'3 5.7
2018-Feb-18 22:00N 33°39' W 118°15'510.4
2018-Feb-18 21:30N 33°44' W 118°17'0 0.0
2018-Feb-18 21:00N 33°44' W 118°17'3 6.2
2018-Feb-18 20:30N 33°43' W 118°13'3 5.2
2018-Feb-18 20:00N 33°46' W 118°12'0 0.0
2018-Feb-18 03:20N 33°46' W 118°12'1 1.4
2018-Feb-18 02:57N 33°45' W 118°11'510.1
2018-Feb-18 02:30N 33°44' W 118°16'2 3.3
2018-Feb-18 02:00N 33°43' W 118°15'510.3
2018-Feb-18 01:31N 33°40' W 118°20'3 6.4
2018-Feb-18 01:00N 33°43' W 118°22'510.7
2018-Feb-18 00:30N 33°43' W 118°16'1 2.6
2018-Feb-18 00:01N 33°44' W 118°17'2 4.4
2018-Feb-17 23:31N 33°42' W 118°15'5 6.4
2018-Feb-17 22:46N 33°42' W 118°20'1 3.4
2018-Feb-17 22:29N 33°41' W 118°20'4 7.6
2018-Feb-17 22:00N 33°43' W 118°16'1 1.8
2018-Feb-17 21:30N 33°44' W 118°17'0 0.5
2018-Feb-17 21:00N 33°44' W 118°17'0 0.0
2018-Feb-17 20:30N 33°44' W 118°17'3 5.8
2018-Feb-17 20:00N 33°43' W 118°13'3 5.1
2018-Feb-17 19:30N 33°46' W 118°12'0 0.0
2018-Feb-17 19:00N 33°46' W 118°12'3 5.1
2018-Feb-17 18:30N 33°44' W 118°09'2 4.7
2018-Feb-17 18:01N 33°44' W 118°06'2 3.3
2018-Feb-17 17:30N 33°45' W 118°08'3 6.6
2018-Feb-17 17:00N 33°46' W 118°12'0 0.0
2018-Feb-17 01:54N 33°46' W 118°12'511.3
2018-Feb-17 01:31N 33°42' W 118°15'3 5.7
2018-Feb-17 00:58N 33°40' W 118°18'4 8.5
2018-Feb-17 00:29N 33°36' W 118°17'4 8.5
2018-Feb-17 00:00N 33°40' W 118°14'713.1
2018-Feb-16 23:30N 33°46' W 118°12'1 1.7
2018-Feb-16 23:00N 33°45' W 118°11'612.0
2018-Feb-16 22:31N 33°40' W 118°14'1 2.7
2018-Feb-16 22:01N 33°40' W 118°16'3 6.1
2018-Feb-16 21:30N 33°38' W 118°13'4 8.4
2018-Feb-16 21:00N 33°42' W 118°12'4 7.4
2018-Feb-16 20:30N 33°46' W 118°12'0 0.4
2018-Feb-16 20:00N 33°46' W 118°12'815.5
2018-Feb-16 19:30N 33°38' W 118°12'3 6.3
2018-Feb-16 19:00N 33°37' W 118°16'612.8
2018-Feb-16 18:30N 33°43' W 118°15'4 7.4
2018-Feb-16 18:00N 33°45' W 118°11'1 1.5
2018-Feb-16 17:30N 33°46' W 118°12'0 0.0
2018-Feb-16 01:58N 33°46' W 118°12'716.4
2018-Feb-16 01:30N 33°38' W 118°11'3 6.8
2018-Feb-16 01:00N 33°35' W 118°11'3 5.5
2018-Feb-16 00:30N 33°33' W 118°08'714.6
2018-Feb-16 00:00N 33°38' W 118°14'611.4
2018-Feb-15 23:31N 33°43' W 118°11'3 5.1
2018-Feb-15 23:00N 33°46' W 118°12'2 3.1
2018-Feb-15 22:31N 33°44' W 118°11'1019.1
2018-Feb-15 22:00N 33°43' W 118°22'3 6.6
2018-Feb-15 21:30N 33°45' W 118°26'713.4
2018-Feb-15 21:00N 33°41' W 118°19'714.6
2018-Feb-15 20:30N 33°44' W 118°11'2 4.5
2018-Feb-15 20:00N 33°46' W 118°12'0 0.0
2018-Feb-15 19:27N 33°46' W 118°12'0 0.0
2018-Feb-15 19:01N 33°46' W 118°12'0 0.0
2018-Feb-15 18:31N 33°46' W 118°12'0 0.0
2018-Feb-15 02:50N 33°46' W 118°12'0 0.0
2018-Feb-15 02:26N 33°46' W 118°12'0 0.0
2018-Feb-15 01:48N 33°46' W 118°12'0 0.8
2018-Feb-15 01:30N 33°46' W 118°12'714.2
2018-Feb-15 01:00N 33°41' W 118°19'3 5.4
2018-Feb-15 00:30N 33°40' W 118°16'1 1.1
2018-Feb-15 00:00N 33°41' W 118°15'510.4
2018-Feb-14 23:31N 33°44' W 118°11'2 3.3
2018-Feb-14 23:00N 33°46' W 118°12'612.9
2018-Feb-14 22:31N 33°39' W 118°11'6 6.7
2018-Feb-14 21:37N 33°34' W 118°13'316.9
2018-Feb-14 21:26N 33°36' W 118°11'2 5.1
2018-Feb-14 21:00N 33°38' W 118°13'612.6
2018-Feb-14 20:30N 33°44' W 118°11'2 4.0
2018-Feb-14 20:00N 33°46' W 118°12'0 0.0
2018-Feb-14 19:30N 33°46' W 118°12'0 0.0
2018-Feb-14 02:17N 33°46' W 118°12'0 0.0
2018-Feb-14 01:55N 33°46' W 118°12'1 3.1
2018-Feb-14 01:31N 33°45' W 118°11'917.3
2018-Feb-14 00:59N 33°42' W 118°21'3 6.4
2018-Feb-14 00:30N 33°44' W 118°24'713.3
2018-Feb-13 23:58N 33°40' W 118°18'715.3
2018-Feb-13 23:30N 33°44' W 118°11'2 4.3
2018-Feb-13 23:01N 33°46' W 118°12'2 4.5
2018-Feb-13 22:31N 33°44' W 118°12'8 6.7
2018-Feb-13 21:23N 33°40' W 118°19'410.8
2018-Feb-13 21:00N 33°42' W 118°15'4 7.4
2018-Feb-13 20:31N 33°44' W 118°11'2 4.0
2018-Feb-13 19:59N 33°46' W 118°12'0 0.0
2018-Feb-13 19:30N 33°46' W 118°12'0 0.0
2018-Feb-13 19:00N 33°46' W 118°12'0 0.0
2018-Feb-13 01:43N 33°46' W 118°12'0 0.6
2018-Feb-13 01:30N 33°46' W 118°12'917.5
2018-Feb-13 01:00N 33°38' W 118°16'3 5.4
2018-Feb-13 00:30N 33°40' W 118°18'4 7.1
2018-Feb-13 00:00N 33°43' W 118°16'4 8.1
2018-Feb-12 23:31N 33°44' W 118°11'2 3.8
2018-Feb-12 23:01N 33°46' W 118°12'0 0.0
2018-Feb-12 04:25N 33°46' W 118°12'0 0.0
2018-Feb-12 03:56N 33°46' W 118°12'2 5.5
2018-Feb-12 03:30N 33°43' W 118°12'3 6.5
2018-Feb-12 03:00N 33°44' W 118°16'1 1.0
2018-Feb-12 02:30N 33°44' W 118°17'2 3.8
2018-Feb-12 02:00N 33°43' W 118°15'5 8.5
2018-Feb-12 01:26N 33°40' W 118°20'1 2.3
2018-Feb-12 00:59N 33°41' W 118°19'4 8.5
2018-Feb-12 00:30N 33°44' W 118°16'0 0.4
2018-Feb-12 00:00N 33°44' W 118°17'2 4.1
2018-Feb-11 23:30N 33°43' W 118°15'4 7.3
2018-Feb-11 22:58N 33°41' W 118°20'5 9.7
2018-Feb-11 22:30N 33°39' W 118°15'3 6.5
2018-Feb-11 22:00N 33°43' W 118°15'2 3.5
2018-Feb-11 21:30N 33°44' W 118°17'3 6.3
2018-Feb-11 21:01N 33°43' W 118°13'3 5.1
2018-Feb-11 20:30N 33°46' W 118°12'0 0.0
2018-Feb-11 20:00N 33°46' W 118°12'0 0.0
2018-Feb-11 19:30N 33°46' W 118°12'0 0.0
2018-Feb-11 19:00N 33°46' W 118°12'0 0.0
2018-Feb-11 18:30N 33°46' W 118°12'0 0.0
2018-Feb-11 18:00N 33°46' W 118°12'0 0.0
2018-Feb-11 03:27N 33°46' W 118°12'0 0.0
2018-Feb-11 02:58N 33°46' W 118°12'0 0.0
2018-Feb-11 02:30N 33°46' W 118°12'0 0.0
2018-Feb-11 02:00N 33°46' W 118°12'0 0.0
2018-Feb-11 01:30N 33°46' W 118°12'0 0.0
2018-Feb-11 01:00N 33°46' W 118°12'0 0.0
2018-Feb-11 00:30N 33°46' W 118°12'0 0.0
2018-Feb-11 00:00N 33°46' W 118°12'0 0.0
2018-Feb-10 23:30N 33°46' W 118°12'0 0.0
2018-Feb-10 23:00N 33°46' W 118°12'0 0.0
2018-Feb-10 22:30N 33°46' W 118°12'0 0.0
2018-Feb-10 22:00N 33°46' W 118°12'0 0.0
2018-Feb-10 21:30N 33°46' W 118°12'0 0.0
2018-Feb-10 21:00N 33°46' W 118°12'1 1.6
2018-Feb-10 20:30N 33°45' W 118°11'1 1.4
2018-Feb-10 20:00N 33°46' W 118°12'1 2.6
2018-Feb-10 19:30N 33°46' W 118°13'1 2.6
2018-Feb-10 19:00N 33°45' W 118°12'1 2.5
2018-Feb-10 18:30N 33°46' W 118°12'0 0.0
2018-Feb-10 18:00N 33°46' W 118°12'0 0.0
2018-Feb-10 03:41N 33°46' W 118°12'0 0.0
2018-Feb-10 03:28N 33°46' W 118°12'0 0.0
2018-Feb-10 02:52N 33°46' W 118°12'0 0.0
2018-Feb-10 02:30N 33°46' W 118°12'0 0.0
2018-Feb-10 01:57N 33°46' W 118°12'2 5.0
2018-Feb-10 01:31N 33°44' W 118°12'1018.6
2018-Feb-10 00:59N 33°43' W 118°24'2 4.6
2018-Feb-10 00:30N 33°45' W 118°26'917.8
2018-Feb-10 00:00N 33°40' W 118°17'612.8
2018-Feb-09 23:30N 33°45' W 118°11'1 2.8
2018-Feb-09 22:59N 33°46' W 118°12'1 2.8
2018-Feb-09 22:46N 33°45' W 118°11'1 0.2
2018-Feb-09 19:31N 33°46' W 118°12'3 6.0
2018-Feb-09 19:01N 33°43' W 118°14'  
Track history (hours):
 
Tides and Currents Weather Stations Pressure Air Temp Water Temp Dewpoint Dewpoint Depression Visibility Wind Speed Wind Dir Waves Ship Positions

Triumphant

Owner: Harbor Breeze Corporation, Long Beach, CA. More information available from US FCC via Universal Licensing System and Coast Guard Vessel Documentation Center.

Last reported at 2018-Feb-19 18:01 UTC. Time now 2018-Feb-19 18:08 UTC.
Position N 33°46' W 118°12'.

Length 26 m.

Type: Passenger vessel. MMSI: 367580930.

Date/timePositionNaut miles runAvg speedWind from/ knotsBaromVisibWave heightAir tempDewpointWater temp
2018-Feb-19 18:01N 33°46' W 118°12'0 0.0
2018-Feb-19 17:28N 33°46' W 118°12'0 0.0
2018-Feb-19 04:07N 33°46' W 118°12'0 0.1
2018-Feb-19 03:13N 33°46' W 118°12'2 8.9
2018-Feb-19 02:59N 33°44' W 118°12'4 8.7
2018-Feb-19 02:30N 33°44' W 118°17'8 6.7
2018-Feb-19 01:15N 33°44' W 118°27'613.2
2018-Feb-19 00:50N 33°43' W 118°20'3 7.9
2018-Feb-19 00:31N 33°42' W 118°17'2 4.3
2018-Feb-19 00:00N 33°44' W 118°17'0 0.0
2018-Feb-18 23:30N 33°44' W 118°17'3 5.1
2018-Feb-18 22:59N 33°42' W 118°18'510.5
2018-Feb-18 22:28N 33°37' W 118°17'3 5.7
2018-Feb-18 22:00N 33°39' W 118°15'510.4
2018-Feb-18 21:30N 33°44' W 118°17'0 0.0
2018-Feb-18 21:00N 33°44' W 118°17'3 6.2
2018-Feb-18 20:30N 33°43' W 118°13'3 5.2
2018-Feb-18 20:00N 33°46' W 118°12'0 0.0
2018-Feb-18 03:20N 33°46' W 118°12'1 1.4
2018-Feb-18 02:57N 33°45' W 118°11'510.1
2018-Feb-18 02:30N 33°44' W 118°16'2 3.3
2018-Feb-18 02:00N 33°43' W 118°15'510.3
2018-Feb-18 01:31N 33°40' W 118°20'3 6.4
2018-Feb-18 01:00N 33°43' W 118°22'510.7
2018-Feb-18 00:30N 33°43' W 118°16'1 2.6
2018-Feb-18 00:01N 33°44' W 118°17'2 4.4
2018-Feb-17 23:31N 33°42' W 118°15'5 6.4
2018-Feb-17 22:46N 33°42' W 118°20'1 3.4
2018-Feb-17 22:29N 33°41' W 118°20'4 7.6
2018-Feb-17 22:00N 33°43' W 118°16'1 1.8
2018-Feb-17 21:30N 33°44' W 118°17'0 0.5
2018-Feb-17 21:00N 33°44' W 118°17'0 0.0
2018-Feb-17 20:30N 33°44' W 118°17'3 5.8
2018-Feb-17 20:00N 33°43' W 118°13'3 5.1
2018-Feb-17 19:30N 33°46' W 118°12'0 0.0
2018-Feb-17 19:00N 33°46' W 118°12'3 5.1
2018-Feb-17 18:30N 33°44' W 118°09'2 4.7
2018-Feb-17 18:01N 33°44' W 118°06'2 3.3
2018-Feb-17 17:30N 33°45' W 118°08'3 6.6
2018-Feb-17 17:00N 33°46' W 118°12'0 0.0
2018-Feb-17 01:54N 33°46' W 118°12'511.3
2018-Feb-17 01:31N 33°42' W 118°15'3 5.7
2018-Feb-17 00:58N 33°40' W 118°18'4 8.5
2018-Feb-17 00:29N 33°36' W 118°17'4 8.5
2018-Feb-17 00:00N 33°40' W 118°14'713.1
2018-Feb-16 23:30N 33°46' W 118°12'1 1.7
2018-Feb-16 23:00N 33°45' W 118°11'612.0
2018-Feb-16 22:31N 33°40' W 118°14'1 2.7
2018-Feb-16 22:01N 33°40' W 118°16'3 6.1
2018-Feb-16 21:30N 33°38' W 118°13'4 8.4
2018-Feb-16 21:00N 33°42' W 118°12'4 7.4
2018-Feb-16 20:30N 33°46' W 118°12'0 0.4
2018-Feb-16 20:00N 33°46' W 118°12'815.5
2018-Feb-16 19:30N 33°38' W 118°12'3 6.3
2018-Feb-16 19:00N 33°37' W 118°16'612.8
2018-Feb-16 18:30N 33°43' W 118°15'4 7.4
2018-Feb-16 18:00N 33°45' W 118°11'1 1.5
2018-Feb-16 17:30N 33°46' W 118°12'0 0.0
2018-Feb-16 01:58N 33°46' W 118°12'716.4
2018-Feb-16 01:30N 33°38' W 118°11'3 6.8
2018-Feb-16 01:00N 33°35' W 118°11'3 5.5
2018-Feb-16 00:30N 33°33' W 118°08'714.6
2018-Feb-16 00:00N 33°38' W 118°14'611.4
2018-Feb-15 23:31N 33°43' W 118°11'3 5.1
2018-Feb-15 23:00N 33°46' W 118°12'2 3.1
2018-Feb-15 22:31N 33°44' W 118°11'1019.1
2018-Feb-15 22:00N 33°43' W 118°22'3 6.6
2018-Feb-15 21:30N 33°45' W 118°26'713.4
2018-Feb-15 21:00N 33°41' W 118°19'714.6
2018-Feb-15 20:30N 33°44' W 118°11'2 4.5
2018-Feb-15 20:00N 33°46' W 118°12'0 0.0
2018-Feb-15 19:27N 33°46' W 118°12'0 0.0
2018-Feb-15 19:01N 33°46' W 118°12'0 0.0
2018-Feb-15 18:31N 33°46' W 118°12'0 0.0
2018-Feb-15 02:50N 33°46' W 118°12'0 0.0
2018-Feb-15 02:26N 33°46' W 118°12'0 0.0
2018-Feb-15 01:48N 33°46' W 118°12'0 0.8
2018-Feb-15 01:30N 33°46' W 118°12'714.2
2018-Feb-15 01:00N 33°41' W 118°19'3 5.4
2018-Feb-15 00:30N 33°40' W 118°16'1 1.1
2018-Feb-15 00:00N 33°41' W 118°15'510.4
2018-Feb-14 23:31N 33°44' W 118°11'2 3.3
2018-Feb-14 23:00N 33°46' W 118°12'612.9
2018-Feb-14 22:31N 33°39' W 118°11'6 6.7
2018-Feb-14 21:37N 33°34' W 118°13'316.9
2018-Feb-14 21:26N 33°36' W 118°11'2 5.1
2018-Feb-14 21:00N 33°38' W 118°13'612.6
2018-Feb-14 20:30N 33°44' W 118°11'2 4.0
2018-Feb-14 20:00N 33°46' W 118°12'0 0.0
2018-Feb-14 19:30N 33°46' W 118°12'0 0.0
2018-Feb-14 02:17N 33°46' W 118°12'0 0.0
2018-Feb-14 01:55N 33°46' W 118°12'1 3.1
2018-Feb-14 01:31N 33°45' W 118°11'917.3
2018-Feb-14 00:59N 33°42' W 118°21'3 6.4
2018-Feb-14 00:30N 33°44' W 118°24'713.3
2018-Feb-13 23:58N 33°40' W 118°18'715.3
2018-Feb-13 23:30N 33°44' W 118°11'2 4.3
2018-Feb-13 23:01N 33°46' W 118°12'2 4.5
2018-Feb-13 22:31N 33°44' W 118°12'8 6.7
2018-Feb-13 21:23N 33°40' W 118°19'410.8
2018-Feb-13 21:00N 33°42' W 118°15'4 7.4
2018-Feb-13 20:31N 33°44' W 118°11'2 4.0
2018-Feb-13 19:59N 33°46' W 118°12'0 0.0
2018-Feb-13 19:30N 33°46' W 118°12'0 0.0
2018-Feb-13 19:00N 33°46' W 118°12'0 0.0
2018-Feb-13 01:43N 33°46' W 118°12'0 0.6
2018-Feb-13 01:30N 33°46' W 118°12'917.5
2018-Feb-13 01:00N 33°38' W 118°16'3 5.4
2018-Feb-13 00:30N 33°40' W 118°18'4 7.1
2018-Feb-13 00:00N 33°43' W 118°16'4 8.1
2018-Feb-12 23:31N 33°44' W 118°11'2 3.8
2018-Feb-12 23:01N 33°46' W 118°12'0 0.0
2018-Feb-12 04:25N 33°46' W 118°12'0 0.0
2018-Feb-12 03:56N 33°46' W 118°12'2 5.5
2018-Feb-12 03:30N 33°43' W 118°12'3 6.5
2018-Feb-12 03:00N 33°44' W 118°16'1 1.0
2018-Feb-12 02:30N 33°44' W 118°17'2 3.8
2018-Feb-12 02:00N 33°43' W 118°15'5 8.5
2018-Feb-12 01:26N 33°40' W 118°20'1 2.3
2018-Feb-12 00:59N 33°41' W 118°19'4 8.5
2018-Feb-12 00:30N 33°44' W 118°16'0 0.4
2018-Feb-12 00:00N 33°44' W 118°17'2 4.1
2018-Feb-11 23:30N 33°43' W 118°15'4 7.3
2018-Feb-11 22:58N 33°41' W 118°20'5 9.7
2018-Feb-11 22:30N 33°39' W 118°15'3 6.5
2018-Feb-11 22:00N 33°43' W 118°15'2 3.5
2018-Feb-11 21:30N 33°44' W 118°17'3 6.3
2018-Feb-11 21:01N 33°43' W 118°13'3 5.1
2018-Feb-11 20:30N 33°46' W 118°12'0 0.0
2018-Feb-11 20:00N 33°46' W 118°12'0 0.0
2018-Feb-11 19:30N 33°46' W 118°12'0 0.0
2018-Feb-11 19:00N 33°46' W 118°12'0 0.0
2018-Feb-11 18:30N 33°46' W 118°12'0 0.0
2018-Feb-11 18:00N 33°46' W 118°12'0 0.0
2018-Feb-11 03:27N 33°46' W 118°12'0 0.0
2018-Feb-11 02:58N 33°46' W 118°12'0 0.0
2018-Feb-11 02:30N 33°46' W 118°12'0 0.0
2018-Feb-11 02:00N 33°46' W 118°12'0 0.0
2018-Feb-11 01:30N 33°46' W 118°12'0 0.0
2018-Feb-11 01:00N 33°46' W 118°12'0 0.0
2018-Feb-11 00:30N 33°46' W 118°12'0 0.0
2018-Feb-11 00:00N 33°46' W 118°12'0 0.0
2018-Feb-10 23:30N 33°46' W 118°12'0 0.0
2018-Feb-10 23:00N 33°46' W 118°12'0 0.0
2018-Feb-10 22:30N 33°46' W 118°12'0 0.0
2018-Feb-10 22:00N 33°46' W 118°12'0 0.0
2018-Feb-10 21:30N 33°46' W 118°12'0 0.0
2018-Feb-10 21:00N 33°46' W 118°12'1 1.6
2018-Feb-10 20:30N 33°45' W 118°11'1 1.4
2018-Feb-10 20:00N 33°46' W 118°12'1 2.6
2018-Feb-10 19:30N 33°46' W 118°13'1 2.6
2018-Feb-10 19:00N 33°45' W 118°12'1 2.5
2018-Feb-10 18:30N 33°46' W 118°12'0 0.0
2018-Feb-10 18:00N 33°46' W 118°12'0 0.0
2018-Feb-10 03:41N 33°46' W 118°12'0 0.0
2018-Feb-10 03:28N 33°46' W 118°12'0 0.0
2018-Feb-10 02:52N 33°46' W 118°12'0 0.0
2018-Feb-10 02:30N 33°46' W 118°12'0 0.0
2018-Feb-10 01:57N 33°46' W 118°12'2 5.0
2018-Feb-10 01:31N 33°44' W 118°12'1018.6
2018-Feb-10 00:59N 33°43' W 118°24'2 4.6
2018-Feb-10 00:30N 33°45' W 118°26'917.8
2018-Feb-10 00:00N 33°40' W 118°17'612.8
2018-Feb-09 23:30N 33°45' W 118°11'1 2.8
2018-Feb-09 22:59N 33°46' W 118°12'1 2.8
2018-Feb-09 22:46N 33°45' W 118°11'1 0.2
2018-Feb-09 19:31N 33°46' W 118°12'3 6.0
2018-Feb-09 19:01N 33°43' W 118°14'  

Dump ship's entire track history